Main page
METAR-TAF:

METAR-TAF

Airports :

Sabadell Airport

Sabadell, Spain

latitude: 41-31N, longitude: 002-06E, elevation: 250 m

Current weather observation

The report was made 43 minutes ago, at 04:00 UTC
Wind 2 kt from the West/Northwest
Temperature 14°C
Humidity 94%
Pressure 1025 hPa
Visibility 10 km or more
no clouds below 1500 m and no cumulonimbus

METAR: LELL 260400Z AUTO 30002KT CAVOK 14/13 Q1025

Time: 06:43 (04:43 UTC)

Forecast

The report was made 2 hours and 43 minutes ago, at 02:00 UTC
Forecast valid from 26 at 03 UTC to 27 at 03 UTC
Wind 3 kt from variable directions
Visibility 10 km or more
Few clouds at a height of 5000 ft
Becoming
from 26 at 09 UTC to 26 at 11 UTC
Wind 7 kt from the South/Southwest
Becoming
from 26 at 19 UTC to 26 at 21 UTC
Wind 3 kt from variable directions

TAF: LELL 260200Z 2603/2703 VRB03KT 9999 FEW050 TX28/2612Z TN15/2606Z BECMG 2609/2611 20007KT BECMG 2619/2621 VRB03KT

Weather observations and forecasts of more than 4000 airports (METAR and TAF reports).

The available stations are represented by yellow and red dots on the map.

Hover mouse over dot to see the name of the station.

Then click to see weather observations and forecasts.

To change the map : click on the green buttons with a black cross to zoom in, on the green button with a dash to zoom out, or on the green arrows for adjacent maps.


METAR-TAF: